Terminal Aerodrome Forecast
Issued by NWS

Home | Current Version | Previous Version | Text Only | Print | Product List | Glossary On
Versions: 1 2 3 4 5 6 7 8 9 10 11 12 13 14 15 16
473
FTUS43 KAPX 281725
TAFPLN
TAF
KPLN 281725Z 2818/2918 28008KT P6SM BKN035
     FM290100 29005KT P6SM SCT250
     FM290700 00000KT 1SM BR SCT002
     FM291300 00000KT P6SM FEW250=

USA.gov is the U.S. government's official web portal to all federal, state and local government web resources and services.